sensor_id;sensor_type;location;lat;lon;timestamp;P1;durP1;ratioP1;P2;durP2;ratioP2
19810;SDS011;10065;49.632;8.346;2022-12-24T00:00:59;10.63;;;2.47;;
19810;SDS011;10065;49.632;8.346;2022-12-24T00:03:27;10.10;;;2.10;;
19810;SDS011;10065;49.632;8.346;2022-12-24T00:05:55;14.03;;;2.20;;
19810;SDS011;10065;49.632;8.346;2022-12-24T00:08:23;9.50;;;2.10;;
19810;SDS011;10065;49.632;8.346;2022-12-24T00:10:51;11.83;;;1.90;;
19810;SDS011;10065;49.632;8.346;2022-12-24T00:13:21;9.70;;;2.10;;
19810;SDS011;10065;49.632;8.346;2022-12-24T00:15:49;8.87;;;2.10;;
19810;SDS011;10065;49.632;8.346;2022-12-24T00:18:17;12.13;;;2.90;;
19810;SDS011;10065;49.632;8.346;2022-12-24T00:20:45;12.53;;;2.90;;
19810;SDS011;10065;49.632;8.346;2022-12-24T00:23:14;10.43;;;2.87;;
19810;SDS011;10065;49.632;8.346;2022-12-24T00:25:42;11.50;;;3.13;;
19810;SDS011;10065;49.632;8.346;2022-12-24T00:28:10;14.43;;;2.27;;
19810;SDS011;10065;49.632;8.346;2022-12-24T00:30:41;11.30;;;2.50;;
19810;SDS011;10065;49.632;8.346;2022-12-24T00:33:09;16.00;;;3.03;;
19810;SDS011;10065;49.632;8.346;2022-12-24T00:35:37;10.83;;;2.20;;
19810;SDS011;10065;49.632;8.346;2022-12-24T00:38:06;10.00;;;2.20;;
19810;SDS011;10065;49.632;8.346;2022-12-24T00:40:35;10.67;;;2.90;;
19810;SDS011;10065;49.632;8.346;2022-12-24T00:43:03;15.63;;;2.67;;
19810;SDS011;10065;49.632;8.346;2022-12-24T00:45:30;10.50;;;2.30;;
19810;SDS011;10065;49.632;8.346;2022-12-24T00:47:59;15.53;;;2.27;;
19810;SDS011;10065;49.632;8.346;2022-12-24T00:50:27;10.00;;;2.40;;
19810;SDS011;10065;49.632;8.346;2022-12-24T00:52:55;9.93;;;2.10;;
19810;SDS011;10065;49.632;8.346;2022-12-24T00:55:23;11.90;;;3.03;;
19810;SDS011;10065;49.632;8.346;2022-12-24T00:57:50;9.37;;;2.20;;
19810;SDS011;10065;49.632;8.346;2022-12-24T01:00:18;12.27;;;2.60;;
19810;SDS011;10065;49.632;8.346;2022-12-24T01:02:46;16.87;;;2.80;;
19810;SDS011;10065;49.632;8.346;2022-12-24T01:05:16;9.97;;;2.27;;
19810;SDS011;10065;49.632;8.346;2022-12-24T01:07:46;7.47;;;1.90;;
19810;SDS011;10065;49.632;8.346;2022-12-24T01:10:16;9.50;;;2.10;;
19810;SDS011;10065;49.632;8.346;2022-12-24T01:12:45;14.03;;;3.03;;
19810;SDS011;10065;49.632;8.346;2022-12-24T01:15:14;14.57;;;2.70;;
19810;SDS011;10065;49.632;8.346;2022-12-24T01:17:42;13.53;;;2.30;;
19810;SDS011;10065;49.632;8.346;2022-12-24T01:20:12;14.53;;;2.50;;
19810;SDS011;10065;49.632;8.346;2022-12-24T01:22:42;14.30;;;2.60;;
19810;SDS011;10065;49.632;8.346;2022-12-24T01:25:16;14.97;;;2.23;;
19810;SDS011;10065;49.632;8.346;2022-12-24T01:27:44;11.03;;;1.77;;
19810;SDS011;10065;49.632;8.346;2022-12-24T01:30:12;18.17;;;2.10;;
19810;SDS011;10065;49.632;8.346;2022-12-24T01:32:40;10.97;;;1.83;;
19810;SDS011;10065;49.632;8.346;2022-12-24T01:35:08;12.17;;;2.47;;
19810;SDS011;10065;49.632;8.346;2022-12-24T01:37:37;14.77;;;2.20;;
19810;SDS011;10065;49.632;8.346;2022-12-24T01:40:07;11.67;;;1.90;;
19810;SDS011;10065;49.632;8.346;2022-12-24T01:42:57;13.57;;;2.27;;
19810;SDS011;10065;49.632;8.346;2022-12-24T01:45:43;14.47;;;2.30;;
19810;SDS011;10065;49.632;8.346;2022-12-24T01:48:21;10.90;;;2.13;;
19810;SDS011;10065;49.632;8.346;2022-12-24T01:51:01;12.73;;;2.10;;
19810;SDS011;10065;49.632;8.346;2022-12-24T01:53:33;12.60;;;2.33;;
19810;SDS011;10065;49.632;8.346;2022-12-24T01:56:05;10.00;;;1.80;;
19810;SDS011;10065;49.632;8.346;2022-12-24T01:58:35;11.30;;;2.00;;
19810;SDS011;10065;49.632;8.346;2022-12-24T02:01:06;17.67;;;2.70;;
19810;SDS011;10065;49.632;8.346;2022-12-24T02:03:34;13.77;;;2.70;;
19810;SDS011;10065;49.632;8.346;2022-12-24T02:06:02;12.67;;;1.60;;
19810;SDS011;10065;49.632;8.346;2022-12-24T02:08:31;14.07;;;2.00;;
19810;SDS011;10065;49.632;8.346;2022-12-24T02:11:11;17.10;;;3.13;;
19810;SDS011;10065;49.632;8.346;2022-12-24T02:13:40;11.20;;;2.03;;
19810;SDS011;10065;49.632;8.346;2022-12-24T02:16:13;12.57;;;1.97;;
19810;SDS011;10065;49.632;8.346;2022-12-24T02:18:53;13.60;;;2.27;;
19810;SDS011;10065;49.632;8.346;2022-12-24T02:21:32;12.73;;;2.53;;
19810;SDS011;10065;49.632;8.346;2022-12-24T02:24:13;16.50;;;2.70;;
19810;SDS011;10065;49.632;8.346;2022-12-24T02:26:59;18.70;;;2.67;;
19810;SDS011;10065;49.632;8.346;2022-12-24T02:29:48;12.40;;;2.93;;
19810;SDS011;10065;49.632;8.346;2022-12-24T02:32:23;13.73;;;2.17;;
19810;SDS011;10065;49.632;8.346;2022-12-24T02:35:00;13.17;;;2.47;;
19810;SDS011;10065;49.632;8.346;2022-12-24T02:37:36;13.97;;;2.03;;
19810;SDS011;10065;49.632;8.346;2022-12-24T02:40:09;14.67;;;2.50;;
19810;SDS011;10065;49.632;8.346;2022-12-24T02:42:43;11.70;;;2.40;;
19810;SDS011;10065;49.632;8.346;2022-12-24T02:45:17;13.00;;;2.43;;
19810;SDS011;10065;49.632;8.346;2022-12-24T02:47:48;11.10;;;2.60;;
19810;SDS011;10065;49.632;8.346;2022-12-24T02:50:18;9.37;;;1.60;;
19810;SDS011;10065;49.632;8.346;2022-12-24T02:52:46;10.93;;;1.83;;
19810;SDS011;10065;49.632;8.346;2022-12-24T02:55:15;9.97;;;1.90;;
19810;SDS011;10065;49.632;8.346;2022-12-24T02:57:49;15.23;;;2.93;;
19810;SDS011;10065;49.632;8.346;2022-12-24T03:00:26;13.23;;;1.93;;
19810;SDS011;10065;49.632;8.346;2022-12-24T03:03:09;10.13;;;1.67;;
19810;SDS011;10065;49.632;8.346;2022-12-24T03:05:50;8.80;;;1.93;;
19810;SDS011;10065;49.632;8.346;2022-12-24T03:08:26;11.87;;;1.93;;
19810;SDS011;10065;49.632;8.346;2022-12-24T03:11:01;10.77;;;1.70;;
19810;SDS011;10065;49.632;8.346;2022-12-24T03:13:35;11.60;;;2.20;;
19810;SDS011;10065;49.632;8.346;2022-12-24T03:16:04;10.03;;;2.00;;
19810;SDS011;10065;49.632;8.346;2022-12-24T03:18:35;14.37;;;2.13;;
19810;SDS011;10065;49.632;8.346;2022-12-24T03:21:08;10.33;;;1.87;;
19810;SDS011;10065;49.632;8.346;2022-12-24T03:23:38;14.90;;;2.30;;
19810;SDS011;10065;49.632;8.346;2022-12-24T03:26:06;14.60;;;2.37;;
19810;SDS011;10065;49.632;8.346;2022-12-24T03:28:37;13.93;;;2.60;;
19810;SDS011;10065;49.632;8.346;2022-12-24T03:31:08;11.63;;;2.03;;
19810;SDS011;10065;49.632;8.346;2022-12-24T03:33:37;17.10;;;2.27;;
19810;SDS011;10065;49.632;8.346;2022-12-24T03:36:06;10.37;;;2.27;;
19810;SDS011;10065;49.632;8.346;2022-12-24T03:38:35;11.37;;;1.90;;
19810;SDS011;10065;49.632;8.346;2022-12-24T03:41:03;10.00;;;2.27;;
19810;SDS011;10065;49.632;8.346;2022-12-24T03:43:31;9.50;;;2.00;;
19810;SDS011;10065;49.632;8.346;2022-12-24T03:46:02;20.13;;;3.07;;
19810;SDS011;10065;49.632;8.346;2022-12-24T03:48:33;11.40;;;1.97;;
19810;SDS011;10065;49.632;8.346;2022-12-24T03:51:01;16.07;;;2.37;;
19810;SDS011;10065;49.632;8.346;2022-12-24T03:53:29;16.43;;;2.83;;
19810;SDS011;10065;49.632;8.346;2022-12-24T03:55:57;14.63;;;2.63;;
19810;SDS011;10065;49.632;8.346;2022-12-24T03:58:25;14.57;;;2.37;;
19810;SDS011;10065;49.632;8.346;2022-12-24T04:00:53;14.67;;;2.67;;
19810;SDS011;10065;49.632;8.346;2022-12-24T04:03:21;16.73;;;3.03;;
19810;SDS011;10065;49.632;8.346;2022-12-24T04:05:59;15.30;;;2.77;;
19810;SDS011;10065;49.632;8.346;2022-12-24T04:08:28;13.97;;;2.70;;
19810;SDS011;10065;49.632;8.346;2022-12-24T04:10:55;14.73;;;2.47;;
19810;SDS011;10065;49.632;8.346;2022-12-24T04:13:23;13.33;;;2.43;;
19810;SDS011;10065;49.632;8.346;2022-12-24T04:15:55;14.07;;;2.37;;
19810;SDS011;10065;49.632;8.346;2022-12-24T04:18:24;12.17;;;2.93;;
19810;SDS011;10065;49.632;8.346;2022-12-24T04:20:52;12.63;;;2.60;;
19810;SDS011;10065;49.632;8.346;2022-12-24T04:23:22;9.30;;;2.27;;
19810;SDS011;10065;49.632;8.346;2022-12-24T04:25:50;19.07;;;2.60;;
19810;SDS011;10065;49.632;8.346;2022-12-24T04:28:18;11.07;;;1.93;;
19810;SDS011;10065;49.632;8.346;2022-12-24T04:30:45;14.07;;;2.20;;
19810;SDS011;10065;49.632;8.346;2022-12-24T04:33:13;13.20;;;2.50;;
19810;SDS011;10065;49.632;8.346;2022-12-24T04:35:41;13.93;;;3.20;;
19810;SDS011;10065;49.632;8.346;2022-12-24T04:38:09;16.40;;;2.37;;
19810;SDS011;10065;49.632;8.346;2022-12-24T04:40:38;14.50;;;2.97;;
19810;SDS011;10065;49.632;8.346;2022-12-24T04:43:06;8.63;;;1.80;;
19810;SDS011;10065;49.632;8.346;2022-12-24T04:45:34;11.40;;;2.57;;
19810;SDS011;10065;49.632;8.346;2022-12-24T04:48:01;17.03;;;3.00;;
19810;SDS011;10065;49.632;8.346;2022-12-24T04:50:29;12.73;;;2.40;;
19810;SDS011;10065;49.632;8.346;2022-12-24T04:52:57;16.53;;;3.20;;
19810;SDS011;10065;49.632;8.346;2022-12-24T04:55:25;15.93;;;2.60;;
19810;SDS011;10065;49.632;8.346;2022-12-24T04:57:54;18.07;;;3.50;;
19810;SDS011;10065;49.632;8.346;2022-12-24T05:00:21;16.20;;;3.70;;
19810;SDS011;10065;49.632;8.346;2022-12-24T05:02:49;13.97;;;3.27;;
19810;SDS011;10065;49.632;8.346;2022-12-24T05:05:18;19.53;;;3.80;;
19810;SDS011;10065;49.632;8.346;2022-12-24T05:07:46;16.17;;;3.20;;
19810;SDS011;10065;49.632;8.346;2022-12-24T05:10:14;20.20;;;3.40;;
19810;SDS011;10065;49.632;8.346;2022-12-24T05:12:42;19.10;;;2.60;;
19810;SDS011;10065;49.632;8.346;2022-12-24T05:15:11;23.30;;;3.17;;
19810;SDS011;10065;49.632;8.346;2022-12-24T05:17:38;18.33;;;2.73;;
19810;SDS011;10065;49.632;8.346;2022-12-24T05:20:07;13.10;;;2.83;;
19810;SDS011;10065;49.632;8.346;2022-12-24T05:22:34;20.47;;;3.47;;
19810;SDS011;10065;49.632;8.346;2022-12-24T05:25:20;16.80;;;2.83;;
19810;SDS011;10065;49.632;8.346;2022-12-24T05:28:05;16.77;;;3.83;;
19810;SDS011;10065;49.632;8.346;2022-12-24T05:30:34;16.57;;;2.83;;
19810;SDS011;10065;49.632;8.346;2022-12-24T05:33:02;27.70;;;3.87;;
19810;SDS011;10065;49.632;8.346;2022-12-24T05:35:30;18.20;;;3.20;;
19810;SDS011;10065;49.632;8.346;2022-12-24T05:37:58;20.97;;;3.23;;
19810;SDS011;10065;49.632;8.346;2022-12-24T05:40:25;11.03;;;2.70;;
19810;SDS011;10065;49.632;8.346;2022-12-24T05:42:53;18.07;;;2.83;;
19810;SDS011;10065;49.632;8.346;2022-12-24T05:45:21;20.07;;;3.90;;
19810;SDS011;10065;49.632;8.346;2022-12-24T05:47:50;15.47;;;3.77;;
19810;SDS011;10065;49.632;8.346;2022-12-24T05:50:18;20.27;;;3.67;;
19810;SDS011;10065;49.632;8.346;2022-12-24T05:52:45;20.43;;;3.87;;
19810;SDS011;10065;49.632;8.346;2022-12-24T05:55:13;21.23;;;3.57;;
19810;SDS011;10065;49.632;8.346;2022-12-24T05:57:41;24.53;;;3.77;;
19810;SDS011;10065;49.632;8.346;2022-12-24T06:00:09;19.60;;;3.50;;
19810;SDS011;10065;49.632;8.346;2022-12-24T06:02:37;19.47;;;3.70;;
19810;SDS011;10065;49.632;8.346;2022-12-24T06:05:07;21.30;;;3.93;;
19810;SDS011;10065;49.632;8.346;2022-12-24T06:07:35;20.73;;;3.20;;
19810;SDS011;10065;49.632;8.346;2022-12-24T06:10:03;16.53;;;3.50;;
19810;SDS011;10065;49.632;8.346;2022-12-24T06:12:31;22.23;;;3.57;;
19810;SDS011;10065;49.632;8.346;2022-12-24T06:15:02;27.97;;;4.37;;
19810;SDS011;10065;49.632;8.346;2022-12-24T06:17:29;17.90;;;3.97;;
19810;SDS011;10065;49.632;8.346;2022-12-24T06:19:57;23.57;;;4.43;;
19810;SDS011;10065;49.632;8.346;2022-12-24T06:22:26;21.40;;;3.63;;
19810;SDS011;10065;49.632;8.346;2022-12-24T06:24:54;18.43;;;3.90;;
19810;SDS011;10065;49.632;8.346;2022-12-24T06:27:22;16.57;;;3.90;;
19810;SDS011;10065;49.632;8.346;2022-12-24T06:29:50;18.60;;;3.40;;
19810;SDS011;10065;49.632;8.346;2022-12-24T06:32:18;23.47;;;3.70;;
19810;SDS011;10065;49.632;8.346;2022-12-24T06:34:47;17.23;;;2.93;;
19810;SDS011;10065;49.632;8.346;2022-12-24T06:37:14;21.67;;;3.93;;
19810;SDS011;10065;49.632;8.346;2022-12-24T06:39:45;21.63;;;3.53;;
19810;SDS011;10065;49.632;8.346;2022-12-24T06:42:13;20.33;;;3.23;;
19810;SDS011;10065;49.632;8.346;2022-12-24T06:44:42;22.17;;;3.37;;
19810;SDS011;10065;49.632;8.346;2022-12-24T06:47:10;21.87;;;3.83;;
19810;SDS011;10065;49.632;8.346;2022-12-24T06:49:38;27.57;;;4.60;;
19810;SDS011;10065;49.632;8.346;2022-12-24T06:52:06;22.50;;;4.37;;
19810;SDS011;10065;49.632;8.346;2022-12-24T06:54:33;20.07;;;3.23;;
19810;SDS011;10065;49.632;8.346;2022-12-24T06:57:02;17.57;;;3.40;;
19810;SDS011;10065;49.632;8.346;2022-12-24T06:59:32;19.73;;;4.00;;
19810;SDS011;10065;49.632;8.346;2022-12-24T07:02:00;22.07;;;3.67;;
19810;SDS011;10065;49.632;8.346;2022-12-24T07:04:28;19.57;;;3.73;;
19810;SDS011;10065;49.632;8.346;2022-12-24T07:06:56;18.47;;;3.30;;
19810;SDS011;10065;49.632;8.346;2022-12-24T07:09:24;25.23;;;3.73;;
19810;SDS011;10065;49.632;8.346;2022-12-24T07:11:52;20.90;;;3.80;;
19810;SDS011;10065;49.632;8.346;2022-12-24T07:14:21;21.03;;;3.33;;
19810;SDS011;10065;49.632;8.346;2022-12-24T07:16:48;20.07;;;4.10;;
19810;SDS011;10065;49.632;8.346;2022-12-24T07:19:23;20.87;;;4.07;;
19810;SDS011;10065;49.632;8.346;2022-12-24T07:21:51;19.43;;;4.13;;
19810;SDS011;10065;49.632;8.346;2022-12-24T07:24:19;21.57;;;3.70;;
19810;SDS011;10065;49.632;8.346;2022-12-24T07:26:47;19.03;;;3.73;;
19810;SDS011;10065;49.632;8.346;2022-12-24T07:29:14;21.77;;;3.70;;
19810;SDS011;10065;49.632;8.346;2022-12-24T07:31:44;19.17;;;4.03;;
19810;SDS011;10065;49.632;8.346;2022-12-24T07:34:11;25.00;;;4.10;;
19810;SDS011;10065;49.632;8.346;2022-12-24T07:36:39;19.73;;;3.23;;
19810;SDS011;10065;49.632;8.346;2022-12-24T07:39:07;14.77;;;3.33;;
19810;SDS011;10065;49.632;8.346;2022-12-24T07:41:34;27.50;;;5.40;;
19810;SDS011;10065;49.632;8.346;2022-12-24T07:44:07;20.63;;;3.80;;
19810;SDS011;10065;49.632;8.346;2022-12-24T07:46:37;25.53;;;4.07;;
19810;SDS011;10065;49.632;8.346;2022-12-24T07:49:06;22.43;;;3.90;;
19810;SDS011;10065;49.632;8.346;2022-12-24T07:51:34;18.83;;;3.70;;
19810;SDS011;10065;49.632;8.346;2022-12-24T07:54:02;21.23;;;3.37;;
19810;SDS011;10065;49.632;8.346;2022-12-24T07:56:30;25.27;;;3.60;;
19810;SDS011;10065;49.632;8.346;2022-12-24T07:58:58;19.43;;;3.67;;
19810;SDS011;10065;49.632;8.346;2022-12-24T08:01:26;27.53;;;4.70;;
19810;SDS011;10065;49.632;8.346;2022-12-24T08:03:54;19.23;;;3.67;;
19810;SDS011;10065;49.632;8.346;2022-12-24T08:06:23;23.10;;;3.93;;
19810;SDS011;10065;49.632;8.346;2022-12-24T08:08:51;27.83;;;4.53;;
19810;SDS011;10065;49.632;8.346;2022-12-24T08:11:19;17.60;;;4.37;;
19810;SDS011;10065;49.632;8.346;2022-12-24T08:13:47;24.00;;;5.03;;
19810;SDS011;10065;49.632;8.346;2022-12-24T08:16:14;19.40;;;3.10;;
19810;SDS011;10065;49.632;8.346;2022-12-24T08:18:42;16.47;;;3.63;;
19810;SDS011;10065;49.632;8.346;2022-12-24T08:21:10;19.30;;;4.30;;
19810;SDS011;10065;49.632;8.346;2022-12-24T08:23:42;15.90;;;3.80;;
19810;SDS011;10065;49.632;8.346;2022-12-24T08:26:10;26.53;;;4.50;;
19810;SDS011;10065;49.632;8.346;2022-12-24T08:28:39;28.50;;;4.43;;
19810;SDS011;10065;49.632;8.346;2022-12-24T08:31:07;20.30;;;4.20;;
19810;SDS011;10065;49.632;8.346;2022-12-24T08:33:36;27.03;;;4.83;;
19810;SDS011;10065;49.632;8.346;2022-12-24T08:36:07;24.33;;;4.17;;
19810;SDS011;10065;49.632;8.346;2022-12-24T08:38:36;22.93;;;3.93;;
19810;SDS011;10065;49.632;8.346;2022-12-24T08:41:05;27.23;;;5.27;;
19810;SDS011;10065;49.632;8.346;2022-12-24T08:43:33;26.70;;;5.10;;
19810;SDS011;10065;49.632;8.346;2022-12-24T08:46:02;19.37;;;3.47;;
19810;SDS011;10065;49.632;8.346;2022-12-24T08:48:31;27.67;;;4.30;;
19810;SDS011;10065;49.632;8.346;2022-12-24T08:51:04;17.80;;;3.73;;
19810;SDS011;10065;49.632;8.346;2022-12-24T08:53:33;18.57;;;3.73;;
19810;SDS011;10065;49.632;8.346;2022-12-24T08:56:01;26.27;;;4.80;;
19810;SDS011;10065;49.632;8.346;2022-12-24T08:58:31;21.43;;;3.57;;
19810;SDS011;10065;49.632;8.346;2022-12-24T09:00:59;14.47;;;3.97;;
19810;SDS011;10065;49.632;8.346;2022-12-24T09:03:27;20.67;;;3.70;;
19810;SDS011;10065;49.632;8.346;2022-12-24T09:05:56;18.07;;;3.40;;
19810;SDS011;10065;49.632;8.346;2022-12-24T09:08:23;19.93;;;3.73;;
19810;SDS011;10065;49.632;8.346;2022-12-24T09:10:51;20.10;;;3.87;;
19810;SDS011;10065;49.632;8.346;2022-12-24T09:13:21;18.77;;;4.40;;
19810;SDS011;10065;49.632;8.346;2022-12-24T09:15:53;23.43;;;3.87;;
19810;SDS011;10065;49.632;8.346;2022-12-24T09:18:22;26.20;;;4.67;;
19810;SDS011;10065;49.632;8.346;2022-12-24T09:20:49;23.10;;;3.97;;
19810;SDS011;10065;49.632;8.346;2022-12-24T09:23:22;22.33;;;5.17;;
19810;SDS011;10065;49.632;8.346;2022-12-24T09:25:50;17.60;;;3.47;;
19810;SDS011;10065;49.632;8.346;2022-12-24T09:28:18;23.17;;;4.13;;
19810;SDS011;10065;49.632;8.346;2022-12-24T09:30:54;23.07;;;4.73;;
19810;SDS011;10065;49.632;8.346;2022-12-24T09:33:23;20.80;;;4.03;;
19810;SDS011;10065;49.632;8.346;2022-12-24T09:35:52;27.83;;;4.90;;
19810;SDS011;10065;49.632;8.346;2022-12-24T09:38:20;25.97;;;4.40;;
19810;SDS011;10065;49.632;8.346;2022-12-24T09:40:48;20.43;;;4.23;;
19810;SDS011;10065;49.632;8.346;2022-12-24T09:43:19;20.77;;;4.03;;
19810;SDS011;10065;49.632;8.346;2022-12-24T09:45:50;22.20;;;4.30;;
19810;SDS011;10065;49.632;8.346;2022-12-24T09:48:37;24.50;;;4.20;;
19810;SDS011;10065;49.632;8.346;2022-12-24T09:51:08;25.23;;;4.27;;
19810;SDS011;10065;49.632;8.346;2022-12-24T09:53:38;16.43;;;3.77;;
19810;SDS011;10065;49.632;8.346;2022-12-24T09:56:11;25.53;;;3.93;;
19810;SDS011;10065;49.632;8.346;2022-12-24T09:58:42;25.97;;;4.03;;
19810;SDS011;10065;49.632;8.346;2022-12-24T10:01:15;24.57;;;5.43;;
19810;SDS011;10065;49.632;8.346;2022-12-24T10:03:44;24.53;;;5.47;;
19810;SDS011;10065;49.632;8.346;2022-12-24T10:06:13;22.67;;;4.60;;
19810;SDS011;10065;49.632;8.346;2022-12-24T10:08:58;20.67;;;3.90;;
19810;SDS011;10065;49.632;8.346;2022-12-24T10:11:36;28.43;;;5.10;;
19810;SDS011;10065;49.632;8.346;2022-12-24T10:14:13;20.93;;;4.33;;
19810;SDS011;10065;49.632;8.346;2022-12-24T10:16:54;22.90;;;4.57;;
19810;SDS011;10065;49.632;8.346;2022-12-24T10:19:32;16.77;;;4.03;;
19810;SDS011;10065;49.632;8.346;2022-12-24T10:22:12;20.73;;;4.03;;
19810;SDS011;10065;49.632;8.346;2022-12-24T10:24:48;22.03;;;4.37;;
19810;SDS011;10065;49.632;8.346;2022-12-24T10:27:28;22.73;;;4.53;;
19810;SDS011;10065;49.632;8.346;2022-12-24T10:30:01;28.60;;;4.57;;
19810;SDS011;10065;49.632;8.346;2022-12-24T10:32:43;17.53;;;4.23;;
19810;SDS011;10065;49.632;8.346;2022-12-24T10:35:18;25.47;;;4.90;;
19810;SDS011;10065;49.632;8.346;2022-12-24T10:37:49;19.37;;;5.00;;
19810;SDS011;10065;49.632;8.346;2022-12-24T10:40:22;20.17;;;3.80;;
19810;SDS011;10065;49.632;8.346;2022-12-24T10:42:55;19.00;;;3.80;;
19810;SDS011;10065;49.632;8.346;2022-12-24T10:45:25;22.63;;;3.57;;
19810;SDS011;10065;49.632;8.346;2022-12-24T10:48:02;32.97;;;4.97;;
19810;SDS011;10065;49.632;8.346;2022-12-24T10:50:35;18.20;;;4.00;;
19810;SDS011;10065;49.632;8.346;2022-12-24T10:53:11;22.87;;;4.97;;
19810;SDS011;10065;49.632;8.346;2022-12-24T10:55:44;20.10;;;4.37;;
19810;SDS011;10065;49.632;8.346;2022-12-24T10:58:14;21.20;;;3.77;;
19810;SDS011;10065;49.632;8.346;2022-12-24T11:00:48;25.23;;;4.50;;
19810;SDS011;10065;49.632;8.346;2022-12-24T11:03:23;21.37;;;4.53;;
19810;SDS011;10065;49.632;8.346;2022-12-24T11:08:46;21.03;;;3.73;;
19810;SDS011;10065;49.632;8.346;2022-12-24T11:11:14;15.10;;;3.60;;
19810;SDS011;10065;49.632;8.346;2022-12-24T11:13:45;24.70;;;4.70;;
19810;SDS011;10065;49.632;8.346;2022-12-24T11:16:22;20.83;;;3.50;;
19810;SDS011;10065;49.632;8.346;2022-12-24T11:18:57;27.43;;;4.90;;
19810;SDS011;10065;49.632;8.346;2022-12-24T11:21:28;18.70;;;3.80;;
19810;SDS011;10065;49.632;8.346;2022-12-24T11:23:58;19.47;;;3.70;;
19810;SDS011;10065;49.632;8.346;2022-12-24T11:26:29;19.53;;;3.80;;
19810;SDS011;10065;49.632;8.346;2022-12-24T11:31:47;20.93;;;4.47;;
19810;SDS011;10065;49.632;8.346;2022-12-24T11:34:23;21.10;;;4.53;;
19810;SDS011;10065;49.632;8.346;2022-12-24T11:36:54;22.73;;;4.90;;
19810;SDS011;10065;49.632;8.346;2022-12-24T11:39:40;18.83;;;4.53;;
19810;SDS011;10065;49.632;8.346;2022-12-24T11:42:21;30.10;;;5.40;;
19810;SDS011;10065;49.632;8.346;2022-12-24T11:44:52;19.53;;;4.30;;
19810;SDS011;10065;49.632;8.346;2022-12-24T11:47:30;17.83;;;4.33;;
19810;SDS011;10065;49.632;8.346;2022-12-24T11:50:26;22.70;;;4.40;;
19810;SDS011;10065;49.632;8.346;2022-12-24T11:52:56;18.80;;;4.90;;
19810;SDS011;10065;49.632;8.346;2022-12-24T11:55:39;24.67;;;5.07;;
19810;SDS011;10065;49.632;8.346;2022-12-24T11:58:14;23.90;;;5.33;;
19810;SDS011;10065;49.632;8.346;2022-12-24T12:00:46;24.20;;;6.03;;
19810;SDS011;10065;49.632;8.346;2022-12-24T12:03:22;18.43;;;4.20;;
19810;SDS011;10065;49.632;8.346;2022-12-24T12:05:56;22.03;;;4.30;;
19810;SDS011;10065;49.632;8.346;2022-12-24T12:08:26;18.60;;;4.03;;
19810;SDS011;10065;49.632;8.346;2022-12-24T12:10:55;18.70;;;5.20;;
19810;SDS011;10065;49.632;8.346;2022-12-24T12:13:26;20.07;;;4.73;;
19810;SDS011;10065;49.632;8.346;2022-12-24T12:16:02;20.17;;;4.40;;
19810;SDS011;10065;49.632;8.346;2022-12-24T12:18:41;18.10;;;3.90;;
19810;SDS011;10065;49.632;8.346;2022-12-24T12:21:16;21.00;;;4.33;;
19810;SDS011;10065;49.632;8.346;2022-12-24T12:23:46;20.70;;;4.27;;
19810;SDS011;10065;49.632;8.346;2022-12-24T12:26:18;25.57;;;4.70;;
19810;SDS011;10065;49.632;8.346;2022-12-24T12:28:52;28.03;;;4.97;;
19810;SDS011;10065;49.632;8.346;2022-12-24T12:31:22;23.30;;;4.10;;
19810;SDS011;10065;49.632;8.346;2022-12-24T12:33:54;24.13;;;4.63;;
19810;SDS011;10065;49.632;8.346;2022-12-24T12:36:29;23.37;;;4.40;;
19810;SDS011;10065;49.632;8.346;2022-12-24T12:38:59;16.13;;;4.03;;
19810;SDS011;10065;49.632;8.346;2022-12-24T12:41:34;18.53;;;4.83;;
19810;SDS011;10065;49.632;8.346;2022-12-24T12:44:18;20.53;;;4.97;;
19810;SDS011;10065;49.632;8.346;2022-12-24T12:47:13;16.93;;;5.10;;
19810;SDS011;10065;49.632;8.346;2022-12-24T12:49:56;20.20;;;3.83;;
19810;SDS011;10065;49.632;8.346;2022-12-24T12:52:39;19.47;;;3.97;;
19810;SDS011;10065;49.632;8.346;2022-12-24T12:55:25;18.40;;;4.00;;
19810;SDS011;10065;49.632;8.346;2022-12-24T12:58:02;20.23;;;3.80;;
19810;SDS011;10065;49.632;8.346;2022-12-24T13:00:35;20.30;;;3.67;;
19810;SDS011;10065;49.632;8.346;2022-12-24T13:03:17;23.00;;;4.50;;
19810;SDS011;10065;49.632;8.346;2022-12-24T13:12:03;20.87;;;4.60;;
19810;SDS011;10065;49.632;8.346;2022-12-24T13:14:50;19.93;;;3.17;;
19810;SDS011;10065;49.632;8.346;2022-12-24T13:17:32;18.40;;;3.20;;
19810;SDS011;10065;49.632;8.346;2022-12-24T13:20:17;20.83;;;3.87;;
19810;SDS011;10065;49.632;8.346;2022-12-24T13:22:49;18.97;;;4.73;;
19810;SDS011;10065;49.632;8.346;2022-12-24T13:25:24;18.33;;;3.50;;
19810;SDS011;10065;49.632;8.346;2022-12-24T13:27:55;18.07;;;3.97;;
19810;SDS011;10065;49.632;8.346;2022-12-24T13:30:36;17.43;;;3.83;;
19810;SDS011;10065;49.632;8.346;2022-12-24T13:33:07;16.77;;;3.17;;
19810;SDS011;10065;49.632;8.346;2022-12-24T13:35:37;10.53;;;2.60;;
19810;SDS011;10065;49.632;8.346;2022-12-24T13:38:40;17.97;;;3.23;;
19810;SDS011;10065;49.632;8.346;2022-12-24T13:44:29;13.97;;;2.47;;
19810;SDS011;10065;49.632;8.346;2022-12-24T13:47:01;10.30;;;2.83;;
19810;SDS011;10065;49.632;8.346;2022-12-24T13:49:53;11.80;;;2.97;;
19810;SDS011;10065;49.632;8.346;2022-12-24T13:52:27;10.87;;;2.17;;
19810;SDS011;10065;49.632;8.346;2022-12-24T13:55:03;9.17;;;2.17;;
19810;SDS011;10065;49.632;8.346;2022-12-24T13:57:37;11.37;;;2.53;;
19810;SDS011;10065;49.632;8.346;2022-12-24T14:00:23;11.23;;;2.43;;
19810;SDS011;10065;49.632;8.346;2022-12-24T14:02:56;13.93;;;2.50;;
19810;SDS011;10065;49.632;8.346;2022-12-24T14:05:29;13.93;;;2.60;;
19810;SDS011;10065;49.632;8.346;2022-12-24T14:08:01;15.47;;;3.53;;
19810;SDS011;10065;49.632;8.346;2022-12-24T14:10:34;8.87;;;2.47;;
19810;SDS011;10065;49.632;8.346;2022-12-24T14:13:05;12.30;;;2.60;;
19810;SDS011;10065;49.632;8.346;2022-12-24T14:18:36;8.53;;;2.17;;
19810;SDS011;10065;49.632;8.346;2022-12-24T14:21:06;12.77;;;2.87;;
19810;SDS011;10065;49.632;8.346;2022-12-24T14:23:43;16.00;;;2.60;;
19810;SDS011;10065;49.632;8.346;2022-12-24T14:26:18;15.47;;;4.00;;
19810;SDS011;10065;49.632;8.346;2022-12-24T14:28:49;12.20;;;2.53;;
19810;SDS011;10065;49.632;8.346;2022-12-24T14:31:23;10.13;;;2.60;;
19810;SDS011;10065;49.632;8.346;2022-12-24T14:33:51;13.03;;;2.70;;
19810;SDS011;10065;49.632;8.346;2022-12-24T14:36:19;10.57;;;3.60;;
19810;SDS011;10065;49.632;8.346;2022-12-24T14:38:50;14.10;;;3.20;;
19810;SDS011;10065;49.632;8.346;2022-12-24T14:41:27;13.00;;;3.00;;
19810;SDS011;10065;49.632;8.346;2022-12-24T14:44:24;12.47;;;2.70;;
19810;SDS011;10065;49.632;8.346;2022-12-24T14:47:05;16.83;;;3.17;;
19810;SDS011;10065;49.632;8.346;2022-12-24T14:49:51;14.33;;;3.30;;
19810;SDS011;10065;49.632;8.346;2022-12-24T14:52:33;14.93;;;3.57;;
19810;SDS011;10065;49.632;8.346;2022-12-24T14:55:28;18.03;;;4.13;;
19810;SDS011;10065;49.632;8.346;2022-12-24T14:58:15;14.77;;;3.87;;
19810;SDS011;10065;49.632;8.346;2022-12-24T15:00:46;20.37;;;4.27;;
19810;SDS011;10065;49.632;8.346;2022-12-24T15:03:16;15.27;;;3.37;;
19810;SDS011;10065;49.632;8.346;2022-12-24T15:05:48;13.37;;;3.97;;
19810;SDS011;10065;49.632;8.346;2022-12-24T15:08:20;17.37;;;4.83;;
19810;SDS011;10065;49.632;8.346;2022-12-24T15:10:54;18.20;;;4.40;;
19810;SDS011;10065;49.632;8.346;2022-12-24T15:13:27;16.00;;;3.70;;
19810;SDS011;10065;49.632;8.346;2022-12-24T15:16:02;15.30;;;4.27;;
19810;SDS011;10065;49.632;8.346;2022-12-24T15:18:33;15.57;;;4.17;;
19810;SDS011;10065;49.632;8.346;2022-12-24T15:21:13;15.50;;;4.80;;